createdAt,value
2017-09-28T00:02:12.619Z,20.23
2017-09-28T00:04:40.125Z,18.17
2017-09-28T00:07:08.401Z,18.83
2017-09-28T00:09:36.695Z,20.77
2017-09-28T00:12:04.192Z,27.30
2017-09-28T00:14:32.482Z,22.67
2017-09-28T00:16:59.986Z,21.77
2017-09-28T00:19:27.534Z,24.37
2017-09-28T00:21:55.038Z,20.73
2017-09-28T00:24:22.537Z,20.30
2017-09-28T00:26:50.841Z,22.43
2017-09-28T00:29:18.338Z,22.80
2017-09-28T00:31:46.608Z,24.13
2017-09-28T00:34:14.149Z,21.77
2017-09-28T00:36:42.418Z,20.07
2017-09-28T00:39:09.923Z,20.90
2017-09-28T00:41:37.467Z,22.33
2017-09-28T00:44:04.971Z,25.23
2017-09-28T00:46:32.469Z,24.10
2017-09-28T00:49:00.765Z,28.97
2017-09-28T00:51:28.268Z,24.13
2017-09-28T00:53:55.773Z,22.73
2017-09-28T00:56:23.297Z,24.63
2017-09-28T00:58:50.826Z,23.03
2017-09-28T01:01:18.329Z,19.47
2017-09-28T01:03:45.866Z,23.00
2017-09-28T01:06:13.367Z,26.20
2017-09-28T01:08:40.921Z,21.40
2017-09-28T01:11:08.442Z,26.67
2017-09-28T01:13:35.933Z,26.30
2017-09-28T01:16:03.469Z,21.70
2017-09-28T01:18:30.971Z,24.00
2017-09-28T01:20:58.464Z,26.43
2017-09-28T01:23:25.991Z,21.97
2017-09-28T01:25:53.489Z,25.10
2017-09-28T01:28:21.822Z,23.83
2017-09-28T01:30:49.321Z,25.40
2017-09-28T01:33:16.827Z,24.17
2017-09-28T01:35:45.150Z,27.73
2017-09-28T01:38:12.649Z,22.13
2017-09-28T01:40:40.201Z,25.23
2017-09-28T01:43:07.698Z,23.93
2017-09-28T01:45:35.252Z,23.23
2017-09-28T01:48:02.750Z,24.90
2017-09-28T01:50:30.242Z,29.13
2017-09-28T01:52:57.817Z,26.80
2017-09-28T01:55:40.055Z,26.20
2017-09-28T01:58:07.629Z,33.53
2017-09-28T02:00:36.536Z,30.77
2017-09-28T02:03:10.236Z,28.30
2017-09-28T02:05:37.771Z,28.63
2017-09-28T02:08:05.292Z,23.60
2017-09-28T02:10:33.578Z,28.23
2017-09-28T02:13:01.095Z,25.23
2017-09-28T02:15:29.394Z,25.90
2017-09-28T02:17:56.902Z,28.07
2017-09-28T02:20:25.167Z,24.73
2017-09-28T02:22:52.707Z,23.93
2017-09-28T02:25:20.979Z,25.13
2017-09-28T02:27:48.481Z,23.50
2017-09-28T02:30:16.019Z,26.67
2017-09-28T02:32:43.557Z,23.93
2017-09-28T02:35:11.061Z,24.33
2017-09-28T02:37:38.598Z,24.73
2017-09-28T02:40:06.092Z,23.67
2017-09-28T02:42:33.594Z,23.73
2017-09-28T02:45:01.117Z,25.40
2017-09-28T02:47:29.399Z,22.60
2017-09-28T02:49:56.897Z,25.97
2017-09-28T02:52:24.422Z,23.50
2017-09-28T02:54:51.954Z,26.03
2017-09-28T02:57:19.445Z,25.10
2017-09-28T02:59:47.710Z,21.87
2017-09-28T03:02:15.259Z,26.27
2017-09-28T03:04:42.757Z,25.77
2017-09-28T03:07:10.264Z,26.97
2017-09-28T03:09:37.785Z,25.97
2017-09-28T03:12:06.049Z,27.63
2017-09-28T03:14:33.553Z,32.40
2017-09-28T03:17:01.102Z,25.97
2017-09-28T03:19:28.604Z,28.10
2017-09-28T03:21:56.113Z,27.73
2017-09-28T03:24:23.669Z,32.00
2017-09-28T03:26:51.178Z,25.57
2017-09-28T03:29:18.729Z,28.27
2017-09-28T03:31:46.265Z,25.93
2017-09-28T03:34:13.761Z,25.57
2017-09-28T03:36:41.265Z,25.83
2017-09-28T03:39:09.557Z,26.60
2017-09-28T03:41:37.053Z,28.20
2017-09-28T03:44:04.573Z,25.67
2017-09-28T03:46:32.114Z,26.30
2017-09-28T03:48:59.606Z,32.23
2017-09-28T03:51:27.883Z,25.97
2017-09-28T03:53:55.446Z,22.60
2017-09-28T03:56:22.941Z,23.43
2017-09-28T03:58:51.225Z,25.27
2017-09-28T04:01:18.749Z,25.13
2017-09-28T04:03:47.013Z,25.33
2017-09-28T04:06:15.313Z,25.50
2017-09-28T04:08:42.814Z,26.60
2017-09-28T04:11:11.081Z,31.57
2017-09-28T04:13:39.385Z,25.30
2017-09-28T04:16:06.881Z,29.47
2017-09-28T04:18:35.161Z,27.73
2017-09-28T04:21:02.688Z,26.40
2017-09-28T04:23:30.956Z,21.87
2017-09-28T04:25:59.267Z,25.40
2017-09-28T04:28:26.766Z,22.93
2017-09-28T04:30:54.297Z,23.37
2017-09-28T04:33:22.556Z,24.10
2017-09-28T04:35:50.822Z,25.97
2017-09-28T04:38:19.117Z,26.30
2017-09-28T04:40:46.608Z,23.50
2017-09-28T04:43:14.153Z,24.10
2017-09-28T04:45:41.661Z,24.77
2017-09-28T04:48:09.174Z,25.13
2017-09-28T04:50:36.727Z,24.23
2017-09-28T04:53:04.221Z,24.17
2017-09-28T04:55:31.722Z,22.40
2017-09-28T04:57:59.258Z,21.70
2017-09-28T05:00:26.808Z,24.93
2017-09-28T05:02:54.315Z,29.60
2017-09-28T05:05:22.597Z,21.87
2017-09-28T05:07:50.139Z,20.30
2017-09-28T05:10:17.649Z,22.83
2017-09-28T05:12:45.145Z,20.03
2017-09-28T05:15:12.669Z,17.43
2017-09-28T05:17:40.964Z,19.87
2017-09-28T05:22:43.069Z,22.80
2017-09-28T05:25:11.585Z,20.57
2017-09-28T05:27:39.090Z,16.23
2017-09-28T05:30:06.595Z,25.47
2017-09-28T05:32:34.130Z,17.53
2017-09-28T05:35:01.630Z,22.53
2017-09-28T05:37:29.129Z,17.13
2017-09-28T05:39:56.651Z,22.93
2017-09-28T05:42:24.165Z,18.33
2017-09-28T05:44:51.705Z,16.53
2017-09-28T05:47:19.205Z,20.33
2017-09-28T05:49:46.711Z,18.10
2017-09-28T05:52:14.239Z,17.13
2017-09-28T05:54:41.740Z,17.30
2017-09-28T05:57:09.822Z,22.67
2017-09-28T05:59:37.323Z,19.77
2017-09-28T06:02:04.822Z,18.50
2017-09-28T06:04:32.351Z,23.73
2017-09-28T06:06:59.845Z,21.43
2017-09-28T06:09:27.414Z,19.40
2017-09-28T06:11:55.673Z,19.50
2017-09-28T06:14:23.174Z,18.87
2017-09-28T06:16:50.703Z,16.50
2017-09-28T06:19:18.202Z,19.60
2017-09-28T06:21:45.727Z,17.17
2017-09-28T06:24:13.250Z,18.20
2017-09-28T06:26:40.745Z,22.77
2017-09-28T06:29:09.052Z,22.77
2017-09-28T06:31:36.541Z,17.67
2017-09-28T06:34:04.033Z,17.90
2017-09-28T06:36:31.570Z,20.10
2017-09-28T06:38:59.075Z,18.83
2017-09-28T06:41:27.340Z,18.33
2017-09-28T06:43:55.649Z,21.87
2017-09-28T06:46:23.158Z,22.07
2017-09-28T06:48:50.697Z,18.60
2017-09-28T06:51:18.198Z,18.17
2017-09-28T06:53:45.690Z,17.80
2017-09-28T06:56:13.231Z,18.20
2017-09-28T06:58:40.739Z,18.40
2017-09-28T07:01:08.242Z,16.87
2017-09-28T07:03:35.783Z,18.30
2017-09-28T07:06:03.277Z,16.73
2017-09-28T07:08:30.789Z,21.63
2017-09-28T07:10:59.087Z,20.53
2017-09-28T07:13:27.345Z,18.03
2017-09-28T07:15:54.847Z,17.77
2017-09-28T07:18:22.386Z,16.70
2017-09-28T07:20:49.879Z,17.47
2017-09-28T07:23:18.145Z,19.20
2017-09-28T07:25:46.454Z,20.63
2017-09-28T07:28:13.960Z,21.33
2017-09-28T07:30:41.462Z,18.73
2017-09-28T07:33:09.006Z,20.07
2017-09-28T07:35:36.509Z,18.03
2017-09-28T07:38:04.012Z,16.53
2017-09-28T07:40:31.555Z,18.20
2017-09-28T07:42:59.057Z,16.70
2017-09-28T07:45:26.598Z,15.60
2017-09-28T07:47:54.111Z,17.43
2017-09-28T07:50:21.616Z,14.17
2017-09-28T07:52:49.160Z,15.10
2017-09-28T07:55:16.656Z,12.47
2017-09-28T07:57:44.173Z,14.67
2017-09-28T08:00:12.469Z,13.13
2017-09-28T08:02:39.965Z,13.30
2017-09-28T08:05:07.466Z,15.43
2017-09-28T08:07:34.999Z,15.90
2017-09-28T08:10:02.497Z,12.67
2017-09-28T08:12:30.762Z,14.03
2017-09-28T08:14:59.064Z,13.83
2017-09-28T08:17:26.571Z,16.07
2017-09-28T08:19:54.835Z,13.77
2017-09-28T08:22:23.229Z,15.40
2017-09-28T08:24:50.738Z,14.30
2017-09-28T08:27:19.013Z,14.43
2017-09-28T08:29:46.549Z,12.83
2017-09-28T08:32:14.045Z,16.73
2017-09-28T08:34:41.566Z,20.80
2017-09-28T08:37:09.149Z,15.50
2017-09-28T08:39:36.650Z,19.30
2017-09-28T08:42:04.195Z,16.50
2017-09-28T08:44:31.689Z,15.83
2017-09-28T08:46:59.185Z,20.17
2017-09-28T08:49:26.726Z,17.37
2017-09-28T08:51:54.213Z,12.03
2017-09-28T08:54:21.718Z,15.30
2017-09-28T08:56:49.250Z,13.03
2017-09-28T08:59:16.763Z,14.27
2017-09-28T09:01:45.034Z,13.47
2017-09-28T09:04:12.570Z,16.40
2017-09-28T09:06:40.829Z,12.43
2017-09-28T09:09:09.133Z,13.00
2017-09-28T09:11:36.621Z,11.97
2017-09-28T09:14:04.889Z,13.00
2017-09-28T09:16:33.182Z,14.30
2017-09-28T09:19:00.677Z,14.53
2017-09-28T09:21:28.217Z,19.03
2017-09-28T09:23:55.713Z,14.20
2017-09-28T09:26:23.218Z,14.33
2017-09-28T09:28:51.525Z,13.47
2017-09-28T09:31:19.021Z,19.50
2017-09-28T09:33:47.326Z,14.10
2017-09-28T09:36:14.849Z,14.53
2017-09-28T09:38:42.360Z,10.90
2017-09-28T09:41:09.866Z,11.90
2017-09-28T09:43:37.406Z,12.77
2017-09-28T09:46:04.901Z,11.97
2017-09-28T09:48:32.395Z,14.20
2017-09-28T09:50:59.935Z,14.37
2017-09-28T09:53:27.433Z,15.33
2017-09-28T09:55:55.702Z,11.30
2017-09-28T09:58:23.996Z,11.97
2017-09-28T10:00:51.521Z,12.57
2017-09-28T10:03:19.765Z,10.93
2017-09-28T10:05:48.056Z,13.70
2017-09-28T10:08:18.880Z,16.73
2017-09-28T10:10:48.230Z,15.23
2017-09-28T10:13:17.053Z,11.47
2017-09-28T10:15:45.792Z,12.60
2017-09-28T10:18:13.289Z,12.00
2017-09-28T10:20:40.794Z,16.27
2017-09-28T10:23:08.449Z,11.83
2017-09-28T10:25:35.945Z,14.57
2017-09-28T10:28:04.216Z,14.80
2017-09-28T10:30:32.527Z,12.03
2017-09-28T10:33:00.059Z,14.17
2017-09-28T10:35:27.554Z,15.20
2017-09-28T10:37:55.844Z,12.53
2017-09-28T10:40:23.377Z,15.40
2017-09-28T10:42:51.644Z,11.57
2017-09-28T10:45:19.138Z,13.60
2017-09-28T10:47:46.676Z,14.30
2017-09-28T10:50:14.174Z,13.07
2017-09-28T10:52:41.724Z,13.73
2017-09-28T10:55:09.239Z,11.63
2017-09-28T10:57:37.506Z,13.27
2017-09-28T11:00:05.805Z,10.43
2017-09-28T11:02:33.298Z,11.87
2017-09-28T11:05:00.801Z,12.87
2017-09-28T11:07:28.326Z,12.33
2017-09-28T11:09:55.821Z,10.37
2017-09-28T11:12:23.317Z,10.20
2017-09-28T11:14:50.838Z,9.10
2017-09-28T11:17:18.334Z,11.13
2017-09-28T11:19:45.867Z,11.70
2017-09-28T11:22:13.375Z,10.10
2017-09-28T11:24:40.870Z,9.00
2017-09-28T11:27:08.417Z,10.63
2017-09-28T11:29:35.914Z,9.80
2017-09-28T11:32:03.404Z,10.90
2017-09-28T11:34:30.926Z,13.70
2017-09-28T11:36:58.428Z,16.27
2017-09-28T11:39:25.955Z,9.33
2017-09-28T11:41:54.233Z,12.10
2017-09-28T11:44:21.741Z,9.87
2017-09-28T11:46:49.270Z,10.37
2017-09-28T11:49:16.758Z,7.43
2017-09-28T11:51:44.289Z,9.10
2017-09-28T11:54:12.554Z,12.37
2017-09-28T11:56:40.816Z,11.40
2017-09-28T11:59:09.102Z,7.30
2017-09-28T12:01:36.604Z,8.77
2017-09-28T12:04:04.137Z,9.30
2017-09-28T12:06:31.641Z,10.70
2017-09-28T12:08:59.141Z,9.80
2017-09-28T12:11:27.429Z,14.17
2017-09-28T12:13:54.941Z,8.57
2017-09-28T12:16:22.471Z,7.13
2017-09-28T12:18:49.966Z,7.23
2017-09-28T12:21:17.456Z,9.33
2017-09-28T12:23:44.982Z,6.10
2017-09-28T12:26:12.502Z,8.40
2017-09-28T12:28:39.992Z,5.20
2017-09-28T12:31:07.532Z,7.50
2017-09-28T12:33:35.017Z,8.70
2017-09-28T12:36:02.509Z,7.33
2017-09-28T12:38:30.045Z,6.60
2017-09-28T12:40:57.538Z,9.43
2017-09-28T12:43:25.031Z,6.13
2017-09-28T12:45:52.545Z,7.00
2017-09-28T12:48:20.034Z,6.83
2017-09-28T12:50:47.554Z,6.43
2017-09-28T12:53:15.053Z,10.33
2017-09-28T12:55:42.587Z,6.90
2017-09-28T12:58:10.846Z,5.97
2017-09-28T13:00:39.102Z,5.60
2017-09-28T13:03:07.392Z,9.60
2017-09-28T13:05:34.917Z,7.63
2017-09-28T13:08:03.198Z,5.93
2017-09-28T13:10:30.693Z,9.63
2017-09-28T13:12:58.212Z,5.10
2017-09-28T13:15:25.742Z,3.53
2017-09-28T13:17:53.233Z,7.00
2017-09-28T13:20:20.726Z,4.17
2017-09-28T13:22:48.241Z,3.73
2017-09-28T13:25:16.504Z,10.20
2017-09-28T13:27:44.043Z,8.63
2017-09-28T13:30:11.542Z,7.67
2017-09-28T13:32:39.038Z,5.00
2017-09-28T13:35:06.565Z,6.10
2017-09-28T13:37:34.822Z,5.40
2017-09-28T13:40:03.078Z,6.50
2017-09-28T13:42:30.598Z,5.90
2017-09-28T13:44:58.099Z,4.37
2017-09-28T13:47:25.631Z,7.93
2017-09-28T13:49:53.130Z,14.43
2017-09-28T13:52:20.621Z,5.13
2017-09-28T13:54:48.181Z,7.57
2017-09-28T13:57:15.678Z,12.77
2017-09-28T13:59:43.975Z,5.03
2017-09-28T14:02:11.497Z,5.17
2017-09-28T14:04:39.772Z,6.20
2017-09-28T14:07:07.337Z,6.33
2017-09-28T14:09:34.833Z,6.03
2017-09-28T14:12:03.108Z,6.80
2017-09-28T14:14:31.401Z,8.37
2017-09-28T14:16:59.708Z,7.47
2017-09-28T14:19:27.200Z,6.90
2017-09-28T14:21:54.743Z,6.73
2017-09-28T14:24:22.253Z,7.37
2017-09-28T14:26:50.558Z,12.90
2017-09-28T14:29:18.054Z,8.83
2017-09-28T14:31:46.350Z,8.83
2017-09-28T14:34:13.856Z,14.53
2017-09-28T14:36:42.142Z,6.83
2017-09-28T14:39:09.733Z,7.57
2017-09-28T14:41:37.217Z,7.53
2017-09-28T14:44:05.472Z,7.83
2017-09-28T14:46:33.774Z,10.00
2017-09-28T14:49:01.317Z,8.70
2017-09-28T14:51:28.817Z,8.80
2017-09-28T14:53:57.126Z,9.40
2017-09-28T14:56:24.623Z,10.07
2017-09-28T14:58:52.886Z,9.57
2017-09-28T15:01:21.181Z,16.93
2017-09-28T15:03:48.683Z,11.13
2017-09-28T15:06:16.222Z,11.53
2017-09-28T15:08:43.722Z,8.63
2017-09-28T15:11:11.230Z,8.83
2017-09-28T15:13:39.569Z,9.43
2017-09-28T15:16:07.110Z,10.60
2017-09-28T15:18:34.585Z,9.90
2017-09-28T15:21:02.884Z,7.90
2017-09-28T15:23:30.370Z,8.67
2017-09-28T15:25:58.642Z,10.80
2017-09-28T15:28:26.943Z,7.40
2017-09-28T15:30:54.446Z,4.90
2017-09-28T15:33:22.721Z,6.13
2017-09-28T15:35:50.281Z,5.40
2017-09-28T15:38:17.783Z,11.10
2017-09-28T15:40:46.146Z,9.23
2017-09-28T15:43:14.401Z,7.53
2017-09-28T15:45:42.065Z,7.80
2017-09-28T15:48:10.488Z,12.70
2017-09-28T15:50:37.982Z,5.60
2017-09-28T15:53:05.473Z,7.27
2017-09-28T15:55:33.855Z,6.23
2017-09-28T15:58:01.356Z,7.37
2017-09-28T16:00:28.882Z,11.97
2017-09-28T16:02:56.437Z,10.03
2017-09-28T16:05:24.631Z,6.83
2017-09-28T16:07:52.129Z,5.47
2017-09-28T16:10:19.668Z,9.00
2017-09-28T16:12:47.162Z,6.80
2017-09-28T16:15:14.653Z,7.23
2017-09-28T16:17:42.182Z,13.53
2017-09-28T16:20:10.458Z,9.67
2017-09-28T16:22:37.961Z,8.30
2017-09-28T16:25:05.477Z,9.10
2017-09-28T16:27:32.979Z,10.67
2017-09-28T16:30:01.282Z,9.03
2017-09-28T16:32:28.778Z,9.40
2017-09-28T16:34:57.045Z,9.97
2017-09-28T16:37:24.585Z,10.67
2017-09-28T16:39:52.850Z,10.03
2017-09-28T16:42:20.353Z,7.60
2017-09-28T16:44:47.871Z,7.70
2017-09-28T16:47:15.389Z,10.97
2017-09-28T16:49:42.889Z,12.63
2017-09-28T16:52:10.430Z,8.53
2017-09-28T16:54:37.929Z,18.10
2017-09-28T16:57:05.421Z,12.57
2017-09-28T16:59:32.977Z,17.67
2017-09-28T17:02:00.475Z,8.80
2017-09-28T17:04:28.000Z,9.00
2017-09-28T17:06:55.504Z,10.27
2017-09-28T17:09:23.762Z,7.57
2017-09-28T17:11:51.282Z,9.47
2017-09-28T17:14:18.782Z,10.60
2017-09-28T17:16:46.306Z,12.50
2017-09-28T17:19:14.577Z,13.30
2017-09-28T17:21:42.874Z,13.83
2017-09-28T17:24:10.370Z,10.13
2017-09-28T17:26:38.650Z,9.97
2017-09-28T17:29:06.194Z,12.90
2017-09-28T17:31:33.749Z,9.40
2017-09-28T17:34:01.994Z,10.80
2017-09-28T17:36:29.529Z,13.00
2017-09-28T17:38:57.842Z,10.40
2017-09-28T17:41:25.333Z,9.50
2017-09-28T17:43:53.622Z,11.47
2017-09-28T17:46:22.701Z,9.60
2017-09-28T17:48:51.989Z,13.17
2017-09-28T17:51:19.657Z,14.03
2017-09-28T17:53:48.305Z,10.10
2017-09-28T17:56:16.714Z,13.37
2017-09-28T17:58:44.302Z,10.40
2017-09-28T18:01:11.900Z,11.40
2017-09-28T18:03:39.446Z,13.00
2017-09-28T18:06:06.942Z,12.17
2017-09-28T18:08:34.449Z,14.30
2017-09-28T18:11:02.745Z,10.20
2017-09-28T18:13:31.137Z,11.80
2017-09-28T18:15:58.628Z,11.13
2017-09-28T18:18:26.913Z,11.13
2017-09-28T18:20:54.461Z,10.23
2017-09-28T18:23:21.962Z,9.27
2017-09-28T18:25:49.454Z,8.80
2017-09-28T18:28:16.982Z,12.13
2017-09-28T18:30:44.513Z,14.20
2017-09-28T18:33:12.047Z,14.30
2017-09-28T18:35:40.321Z,14.80
2017-09-28T18:38:07.859Z,13.70
2017-09-28T18:40:36.117Z,14.87
2017-09-28T18:43:03.665Z,14.43
2017-09-28T18:45:31.930Z,14.07
2017-09-28T18:47:59.423Z,9.50
2017-09-28T18:50:26.960Z,9.97
2017-09-28T18:52:54.469Z,14.70
2017-09-28T18:55:21.973Z,9.57
2017-09-28T18:57:49.514Z,12.13
2017-09-28T19:00:17.029Z,9.60
2017-09-28T19:02:44.575Z,16.77
2017-09-28T19:05:12.737Z,19.60
2017-09-28T19:07:40.247Z,13.67
2017-09-28T19:10:07.759Z,13.80
2017-09-28T19:12:35.292Z,16.63
2017-09-28T19:15:02.804Z,9.23
2017-09-28T19:17:30.299Z,11.80
2017-09-28T19:19:58.586Z,12.43
2017-09-28T19:22:26.089Z,13.93
2017-09-28T19:24:54.409Z,13.97
2017-09-28T19:27:21.909Z,12.40
2017-09-28T19:29:50.173Z,11.27
2017-09-28T19:32:18.479Z,16.23
2017-09-28T19:34:45.985Z,14.27
2017-09-28T19:37:13.481Z,12.40
2017-09-28T19:39:41.014Z,12.50
2017-09-28T19:42:08.514Z,15.77
2017-09-28T19:44:36.019Z,17.23
2017-09-28T19:47:03.569Z,12.33
2017-09-28T19:49:31.068Z,21.17
2017-09-28T19:51:58.576Z,22.83
2017-09-28T19:54:26.935Z,17.20
2017-09-28T19:56:54.462Z,12.43
2017-09-28T19:59:22.041Z,16.13
2017-09-28T20:01:49.538Z,14.73
2017-09-28T20:04:17.038Z,17.20
2017-09-28T20:06:44.569Z,15.10
2017-09-28T20:09:12.065Z,13.90
2017-09-28T20:11:39.605Z,11.47
2017-09-28T20:14:07.133Z,16.07
2017-09-28T20:16:34.658Z,14.87
2017-09-28T20:19:02.181Z,16.83
2017-09-28T20:21:29.730Z,14.90
2017-09-28T20:23:57.233Z,16.90
2017-09-28T20:26:24.746Z,14.10
2017-09-28T20:28:52.274Z,14.43
2017-09-28T20:31:19.769Z,15.33
2017-09-28T20:33:47.305Z,17.07
2017-09-28T20:36:14.830Z,25.97
2017-09-28T20:38:42.325Z,17.50
2017-09-28T20:41:10.619Z,15.07
2017-09-28T20:43:38.120Z,15.17
2017-09-28T20:46:06.429Z,15.87
2017-09-28T20:48:33.937Z,16.63
2017-09-28T20:51:01.438Z,13.67
2017-09-28T20:53:28.965Z,16.37
2017-09-28T20:55:56.465Z,15.90
2017-09-28T20:58:24.006Z,10.37
2017-09-28T21:00:52.272Z,10.93
2017-09-28T21:03:20.533Z,16.20
2017-09-28T21:05:48.074Z,13.47
2017-09-28T21:08:16.333Z,16.90
2017-09-28T21:10:43.829Z,15.33
2017-09-28T21:13:11.359Z,10.80
2017-09-28T21:15:38.862Z,13.30
2017-09-28T21:18:07.150Z,12.00
2017-09-28T21:20:34.667Z,16.33
2017-09-28T21:23:02.954Z,18.50
2017-09-28T21:25:30.489Z,11.60
2017-09-28T21:27:57.983Z,9.43
2017-09-28T21:30:25.481Z,10.43
2017-09-28T21:32:53.014Z,9.50
2017-09-28T21:35:20.522Z,10.17
2017-09-28T21:37:48.018Z,10.40
2017-09-28T21:40:15.538Z,11.53
2017-09-28T21:42:43.038Z,10.20
2017-09-28T21:45:10.570Z,12.80
2017-09-28T21:47:38.066Z,8.10
2017-09-28T21:50:05.569Z,12.93
2017-09-28T21:52:33.090Z,10.27
2017-09-28T21:55:00.587Z,9.30
2017-09-28T21:57:28.881Z,8.30
2017-09-28T21:59:56.369Z,8.93
2017-09-28T22:02:23.866Z,9.13
2017-09-28T22:04:51.397Z,11.20
2017-09-28T22:07:18.910Z,9.60
2017-09-28T22:09:47.162Z,9.63
2017-09-28T22:12:14.699Z,12.27
2017-09-28T22:14:42.238Z,14.53
2017-09-28T22:17:09.741Z,13.33
2017-09-28T22:19:37.241Z,9.07
2017-09-28T22:22:04.762Z,10.23
2017-09-28T22:24:32.261Z,9.40
2017-09-28T22:26:59.789Z,11.03
2017-09-28T22:29:27.290Z,13.97
2017-09-28T22:31:54.786Z,12.93
2017-09-28T22:34:22.340Z,9.03
2017-09-28T22:36:49.845Z,16.27
2017-09-28T22:39:17.339Z,13.50
2017-09-28T22:41:44.873Z,8.30
2017-09-28T22:44:12.580Z,10.47
2017-09-28T22:46:40.850Z,9.70
2017-09-28T22:49:09.154Z,11.90
2017-09-28T22:51:36.669Z,11.73
2017-09-28T22:54:04.210Z,11.80
2017-09-28T22:56:32.469Z,11.53
2017-09-28T22:59:00.767Z,14.43
2017-09-28T23:01:28.291Z,14.33
2017-09-28T23:03:55.798Z,11.60
2017-09-28T23:06:24.094Z,12.07
2017-09-28T23:08:51.589Z,14.50
2017-09-28T23:11:19.124Z,11.60
2017-09-28T23:13:46.630Z,13.80
2017-09-28T23:16:14.121Z,12.97
2017-09-28T23:18:41.653Z,10.87
2017-09-28T23:21:09.151Z,9.20
2017-09-28T23:23:36.649Z,9.97
2017-09-28T23:26:04.165Z,10.93
2017-09-28T23:28:31.674Z,12.40
2017-09-28T23:30:59.212Z,10.10
2017-09-28T23:33:27.473Z,8.87
2017-09-28T23:35:54.966Z,9.63
2017-09-28T23:38:22.495Z,10.43
2017-09-28T23:40:49.985Z,12.60
2017-09-28T23:43:18.245Z,10.13
2017-09-28T23:45:46.539Z,12.10
2017-09-28T23:48:14.070Z,10.87
2017-09-28T23:50:41.689Z,8.90
2017-09-28T23:53:09.218Z,8.17
2017-09-28T23:55:36.718Z,7.80
2017-09-28T23:58:04.209Z,9.10
